sensor_id;sensor_type;location;lat;lon;timestamp;temperature;humidity
16267;DHT22;8241;48.786;9.250;2023-03-30T00:01:56;16.50;91.90
16267;DHT22;8241;48.786;9.250;2023-03-30T00:04:23;16.40;92.20
16267;DHT22;8241;48.786;9.250;2023-03-30T00:06:51;16.40;92.40
16267;DHT22;8241;48.786;9.250;2023-03-30T00:09:19;16.30;92.10
16267;DHT22;8241;48.786;9.250;2023-03-30T00:11:47;16.20;92.10
16267;DHT22;8241;48.786;9.250;2023-03-30T00:14:14;16.30;92.00
16267;DHT22;8241;48.786;9.250;2023-03-30T00:16:42;16.30;92.10
16267;DHT22;8241;48.786;9.250;2023-03-30T00:19:10;16.30;92.10
16267;DHT22;8241;48.786;9.250;2023-03-30T00:21:37;16.30;92.00
16267;DHT22;8241;48.786;9.250;2023-03-30T00:24:04;16.30;92.10
16267;DHT22;8241;48.786;9.250;2023-03-30T00:26:31;16.30;92.00
16267;DHT22;8241;48.786;9.250;2023-03-30T00:28:58;16.30;92.10
16267;DHT22;8241;48.786;9.250;2023-03-30T00:31:24;16.30;92.00
16267;DHT22;8241;48.786;9.250;2023-03-30T00:33:51;16.40;92.00
16267;DHT22;8241;48.786;9.250;2023-03-30T00:36:20;16.40;92.10
16267;DHT22;8241;48.786;9.250;2023-03-30T00:38:46;16.40;92.10
16267;DHT22;8241;48.786;9.250;2023-03-30T00:41:14;16.40;92.10
16267;DHT22;8241;48.786;9.250;2023-03-30T00:43:54;16.40;92.10
16267;DHT22;8241;48.786;9.250;2023-03-30T00:46:22;16.40;92.20
16267;DHT22;8241;48.786;9.250;2023-03-30T00:48:49;16.40;92.30
16267;DHT22;8241;48.786;9.250;2023-03-30T00:51:16;16.40;92.70
16267;DHT22;8241;48.786;9.250;2023-03-30T00:53:46;16.40;92.40
16267;DHT22;8241;48.786;9.250;2023-03-30T00:56:13;16.40;92.40
16267;DHT22;8241;48.786;9.250;2023-03-30T00:58:41;16.50;92.40
16267;DHT22;8241;48.786;9.250;2023-03-30T01:01:09;16.50;92.40
16267;DHT22;8241;48.786;9.250;2023-03-30T01:03:37;16.50;92.40
16267;DHT22;8241;48.786;9.250;2023-03-30T01:06:08;16.50;92.50
16267;DHT22;8241;48.786;9.250;2023-03-30T01:08:35;16.50;92.50
16267;DHT22;8241;48.786;9.250;2023-03-30T01:11:04;16.50;92.60
16267;DHT22;8241;48.786;9.250;2023-03-30T01:13:32;16.40;92.60
16267;DHT22;8241;48.786;9.250;2023-03-30T01:16:05;16.50;92.80
16267;DHT22;8241;48.786;9.250;2023-03-30T01:18:38;16.40;92.90
16267;DHT22;8241;48.786;9.250;2023-03-30T01:21:21;16.30;93.10
16267;DHT22;8241;48.786;9.250;2023-03-30T01:26:51;16.10;93.70
16267;DHT22;8241;48.786;9.250;2023-03-30T01:29:22;16.00;94.10
16267;DHT22;8241;48.786;9.250;2023-03-30T01:32:02;15.90;94.60
16267;DHT22;8241;48.786;9.250;2023-03-30T01:34:48;15.80;94.90
16267;DHT22;8241;48.786;9.250;2023-03-30T01:37:27;15.80;95.00
16267;DHT22;8241;48.786;9.250;2023-03-30T01:40:00;15.90;94.90
16267;DHT22;8241;48.786;9.250;2023-03-30T01:42:35;16.00;95.50
16267;DHT22;8241;48.786;9.250;2023-03-30T01:45:04;16.00;95.80
16267;DHT22;8241;48.786;9.250;2023-03-30T01:47:35;16.00;95.70
16267;DHT22;8241;48.786;9.250;2023-03-30T01:50:05;16.10;95.80
16267;DHT22;8241;48.786;9.250;2023-03-30T01:52:35;16.10;96.60
16267;DHT22;8241;48.786;9.250;2023-03-30T01:55:09;15.90;97.10
16267;DHT22;8241;48.786;9.250;2023-03-30T01:57:38;15.80;97.80
16267;DHT22;8241;48.786;9.250;2023-03-30T02:00:09;15.70;98.20
16267;DHT22;8241;48.786;9.250;2023-03-30T02:02:39;15.60;98.50
16267;DHT22;8241;48.786;9.250;2023-03-30T02:05:07;15.60;98.30
16267;DHT22;8241;48.786;9.250;2023-03-30T02:07:34;15.60;98.20
16267;DHT22;8241;48.786;9.250;2023-03-30T02:10:05;15.70;98.30
16267;DHT22;8241;48.786;9.250;2023-03-30T02:12:34;15.70;98.30
16267;DHT22;8241;48.786;9.250;2023-03-30T02:15:02;15.70;98.60
16267;DHT22;8241;48.786;9.250;2023-03-30T02:17:30;15.60;98.70
16267;DHT22;8241;48.786;9.250;2023-03-30T02:19:58;15.60;98.70
16267;DHT22;8241;48.786;9.250;2023-03-30T02:22:26;15.60;99.00
16267;DHT22;8241;48.786;9.250;2023-03-30T02:24:54;15.60;99.20
16267;DHT22;8241;48.786;9.250;2023-03-30T02:27:22;15.50;99.30
16267;DHT22;8241;48.786;9.250;2023-03-30T02:29:51;15.50;99.50
16267;DHT22;8241;48.786;9.250;2023-03-30T02:32:21;15.50;99.30
16267;DHT22;8241;48.786;9.250;2023-03-30T02:34:53;15.40;99.50
16267;DHT22;8241;48.786;9.250;2023-03-30T02:37:36;15.40;99.30
16267;DHT22;8241;48.786;9.250;2023-03-30T02:40:10;15.50;99.40
16267;DHT22;8241;48.786;9.250;2023-03-30T02:42:48;15.40;99.30
16267;DHT22;8241;48.786;9.250;2023-03-30T02:45:19;15.40;99.50
16267;DHT22;8241;48.786;9.250;2023-03-30T02:47:51;15.40;99.70
16267;DHT22;8241;48.786;9.250;2023-03-30T02:50:21;15.40;99.80
16267;DHT22;8241;48.786;9.250;2023-03-30T02:52:51;15.30;99.90
16267;DHT22;8241;48.786;9.250;2023-03-30T02:55:23;15.30;99.90
16267;DHT22;8241;48.786;9.250;2023-03-30T02:58:14;15.20;99.90
16267;DHT22;8241;48.786;9.250;2023-03-30T03:01:09;15.20;99.90
16267;DHT22;8241;48.786;9.250;2023-03-30T03:03:51;15.10;99.90
16267;DHT22;8241;48.786;9.250;2023-03-30T03:06:20;15.00;99.90
16267;DHT22;8241;48.786;9.250;2023-03-30T03:08:51;14.90;99.90
16267;DHT22;8241;48.786;9.250;2023-03-30T03:11:25;14.90;99.90
16267;DHT22;8241;48.786;9.250;2023-03-30T03:13:53;14.70;99.90
16267;DHT22;8241;48.786;9.250;2023-03-30T03:16:22;14.60;99.90
16267;DHT22;8241;48.786;9.250;2023-03-30T03:19:06;14.50;99.90
16267;DHT22;8241;48.786;9.250;2023-03-30T03:21:34;14.50;99.90
16267;DHT22;8241;48.786;9.250;2023-03-30T03:24:01;14.40;99.90
16267;DHT22;8241;48.786;9.250;2023-03-30T03:26:48;14.30;99.90
16267;DHT22;8241;48.786;9.250;2023-03-30T03:29:15;14.30;99.90
16267;DHT22;8241;48.786;9.250;2023-03-30T03:31:43;14.20;99.90
16267;DHT22;8241;48.786;9.250;2023-03-30T03:34:10;14.10;99.90
16267;DHT22;8241;48.786;9.250;2023-03-30T03:36:52;14.00;99.90
16267;DHT22;8241;48.786;9.250;2023-03-30T03:39:22;14.00;99.90
16267;DHT22;8241;48.786;9.250;2023-03-30T03:41:58;13.90;99.90
16267;DHT22;8241;48.786;9.250;2023-03-30T03:44:24;13.90;99.90
16267;DHT22;8241;48.786;9.250;2023-03-30T03:46:53;13.90;99.90
16267;DHT22;8241;48.786;9.250;2023-03-30T03:49:20;13.90;99.90
16267;DHT22;8241;48.786;9.250;2023-03-30T03:51:47;13.90;99.90
16267;DHT22;8241;48.786;9.250;2023-03-30T03:54:14;13.90;99.90
16267;DHT22;8241;48.786;9.250;2023-03-30T03:56:42;13.90;99.90
16267;DHT22;8241;48.786;9.250;2023-03-30T03:59:09;13.90;99.90
16267;DHT22;8241;48.786;9.250;2023-03-30T04:01:36;13.80;99.90
16267;DHT22;8241;48.786;9.250;2023-03-30T04:04:04;13.90;99.90
16267;DHT22;8241;48.786;9.250;2023-03-30T04:06:31;13.80;99.90
16267;DHT22;8241;48.786;9.250;2023-03-30T04:08:58;13.80;99.90
16267;DHT22;8241;48.786;9.250;2023-03-30T04:11:44;13.80;99.90
16267;DHT22;8241;48.786;9.250;2023-03-30T04:14:30;13.80;99.90
16267;DHT22;8241;48.786;9.250;2023-03-30T04:17:13;13.90;99.90
16267;DHT22;8241;48.786;9.250;2023-03-30T04:19:56;13.90;99.90
16267;DHT22;8241;48.786;9.250;2023-03-30T04:22:47;13.80;99.90
16267;DHT22;8241;48.786;9.250;2023-03-30T04:25:29;13.80;99.90
16267;DHT22;8241;48.786;9.250;2023-03-30T04:28:12;13.80;99.90
16267;DHT22;8241;48.786;9.250;2023-03-30T04:30:58;13.80;99.90
16267;DHT22;8241;48.786;9.250;2023-03-30T04:33:43;13.80;99.90
16267;DHT22;8241;48.786;9.250;2023-03-30T04:36:45;13.80;99.90
16267;DHT22;8241;48.786;9.250;2023-03-30T04:39:26;13.80;99.90
16267;DHT22;8241;48.786;9.250;2023-03-30T04:42:13;13.80;99.90
16267;DHT22;8241;48.786;9.250;2023-03-30T04:44:58;13.80;99.90
16267;DHT22;8241;48.786;9.250;2023-03-30T04:47:49;13.80;99.90
16267;DHT22;8241;48.786;9.250;2023-03-30T04:50:35;13.90;99.90
16267;DHT22;8241;48.786;9.250;2023-03-30T04:53:12;13.90;99.90
16267;DHT22;8241;48.786;9.250;2023-03-30T04:55:49;13.80;99.90
16267;DHT22;8241;48.786;9.250;2023-03-30T04:58:37;13.80;99.90
16267;DHT22;8241;48.786;9.250;2023-03-30T05:01:39;13.80;99.90
16267;DHT22;8241;48.786;9.250;2023-03-30T05:04:24;13.80;99.90
16267;DHT22;8241;48.786;9.250;2023-03-30T05:07:18;13.80;99.90
16267;DHT22;8241;48.786;9.250;2023-03-30T05:10:16;13.70;99.90
16267;DHT22;8241;48.786;9.250;2023-03-30T05:12:56;13.70;99.90
16267;DHT22;8241;48.786;9.250;2023-03-30T05:15:52;13.60;99.90
16267;DHT22;8241;48.786;9.250;2023-03-30T05:18:38;13.50;99.90
16267;DHT22;8241;48.786;9.250;2023-03-30T05:21:25;13.50;99.90
16267;DHT22;8241;48.786;9.250;2023-03-30T05:24:24;13.40;99.90
16267;DHT22;8241;48.786;9.250;2023-03-30T05:27:11;13.40;99.90
16267;DHT22;8241;48.786;9.250;2023-03-30T05:30:04;13.40;99.90
16267;DHT22;8241;48.786;9.250;2023-03-30T05:32:32;13.50;99.90
16267;DHT22;8241;48.786;9.250;2023-03-30T05:35:17;13.50;99.90
16267;DHT22;8241;48.786;9.250;2023-03-30T05:37:57;13.50;99.90
16267;DHT22;8241;48.786;9.250;2023-03-30T05:40:24;13.50;99.90
16267;DHT22;8241;48.786;9.250;2023-03-30T05:43:11;13.50;99.90
16267;DHT22;8241;48.786;9.250;2023-03-30T05:45:49;13.50;99.90
16267;DHT22;8241;48.786;9.250;2023-03-30T05:48:45;13.50;99.90
16267;DHT22;8241;48.786;9.250;2023-03-30T05:51:38;13.50;99.90
16267;DHT22;8241;48.786;9.250;2023-03-30T05:54:19;13.50;99.90
16267;DHT22;8241;48.786;9.250;2023-03-30T05:56:53;13.50;99.90
16267;DHT22;8241;48.786;9.250;2023-03-30T05:59:44;13.50;99.90
16267;DHT22;8241;48.786;9.250;2023-03-30T06:02:29;13.50;99.90
16267;DHT22;8241;48.786;9.250;2023-03-30T06:05:02;13.50;99.90
16267;DHT22;8241;48.786;9.250;2023-03-30T06:07:30;13.50;99.90
16267;DHT22;8241;48.786;9.250;2023-03-30T06:09:57;13.50;99.90
16267;DHT22;8241;48.786;9.250;2023-03-30T06:12:27;13.50;99.90
16267;DHT22;8241;48.786;9.250;2023-03-30T06:14:55;13.40;99.90
16267;DHT22;8241;48.786;9.250;2023-03-30T06:17:28;13.40;99.90
16267;DHT22;8241;48.786;9.250;2023-03-30T06:19:56;13.30;99.90
16267;DHT22;8241;48.786;9.250;2023-03-30T06:22:23;13.30;99.90
16267;DHT22;8241;48.786;9.250;2023-03-30T06:25:02;13.20;99.90
16267;DHT22;8241;48.786;9.250;2023-03-30T06:27:29;13.20;99.90
16267;DHT22;8241;48.786;9.250;2023-03-30T06:29:59;13.20;99.90
16267;DHT22;8241;48.786;9.250;2023-03-30T06:32:26;13.10;99.90
16267;DHT22;8241;48.786;9.250;2023-03-30T06:35:18;13.20;99.90
16267;DHT22;8241;48.786;9.250;2023-03-30T06:37:45;13.20;99.90
16267;DHT22;8241;48.786;9.250;2023-03-30T06:40:13;13.20;99.90
16267;DHT22;8241;48.786;9.250;2023-03-30T06:42:43;13.30;99.90
16267;DHT22;8241;48.786;9.250;2023-03-30T06:45:21;13.30;99.90
16267;DHT22;8241;48.786;9.250;2023-03-30T06:47:48;13.30;99.90
16267;DHT22;8241;48.786;9.250;2023-03-30T06:50:15;13.30;99.90
16267;DHT22;8241;48.786;9.250;2023-03-30T06:52:59;13.30;99.90
16267;DHT22;8241;48.786;9.250;2023-03-30T06:55:32;13.40;99.90
16267;DHT22;8241;48.786;9.250;2023-03-30T06:57:59;13.40;99.90
16267;DHT22;8241;48.786;9.250;2023-03-30T07:00:27;13.50;99.90
16267;DHT22;8241;48.786;9.250;2023-03-30T07:03:13;13.50;99.90
16267;DHT22;8241;48.786;9.250;2023-03-30T07:05:54;13.50;99.90
16267;DHT22;8241;48.786;9.250;2023-03-30T07:08:30;13.60;99.90
16267;DHT22;8241;48.786;9.250;2023-03-30T07:10:57;13.60;99.90
16267;DHT22;8241;48.786;9.250;2023-03-30T07:13:28;13.70;99.90
16267;DHT22;8241;48.786;9.250;2023-03-30T07:15:56;13.70;99.90
16267;DHT22;8241;48.786;9.250;2023-03-30T07:18:23;13.70;99.90
16267;DHT22;8241;48.786;9.250;2023-03-30T07:20:50;13.80;99.90
16267;DHT22;8241;48.786;9.250;2023-03-30T07:23:19;13.80;99.90
16267;DHT22;8241;48.786;9.250;2023-03-30T07:25:48;13.90;99.90
16267;DHT22;8241;48.786;9.250;2023-03-30T07:28:21;13.90;99.90
16267;DHT22;8241;48.786;9.250;2023-03-30T07:30:48;13.90;99.90
16267;DHT22;8241;48.786;9.250;2023-03-30T07:33:19;13.90;99.90
16267;DHT22;8241;48.786;9.250;2023-03-30T07:35:46;13.80;99.90
16267;DHT22;8241;48.786;9.250;2023-03-30T07:38:19;13.80;99.90
16267;DHT22;8241;48.786;9.250;2023-03-30T07:40:50;13.80;99.90
16267;DHT22;8241;48.786;9.250;2023-03-30T07:43:19;13.70;99.90
16267;DHT22;8241;48.786;9.250;2023-03-30T07:45:46;13.70;99.90
16267;DHT22;8241;48.786;9.250;2023-03-30T07:48:22;13.70;99.90
16267;DHT22;8241;48.786;9.250;2023-03-30T07:50:49;13.60;99.90
16267;DHT22;8241;48.786;9.250;2023-03-30T07:53:17;13.50;99.90
16267;DHT22;8241;48.786;9.250;2023-03-30T07:55:46;13.50;99.90
16267;DHT22;8241;48.786;9.250;2023-03-30T07:58:20;13.50;99.90
16267;DHT22;8241;48.786;9.250;2023-03-30T08:00:47;13.50;99.90
16267;DHT22;8241;48.786;9.250;2023-03-30T08:03:33;13.50;99.90
16267;DHT22;8241;48.786;9.250;2023-03-30T08:06:01;13.40;99.90
16267;DHT22;8241;48.786;9.250;2023-03-30T08:08:34;13.30;99.90
16267;DHT22;8241;48.786;9.250;2023-03-30T08:11:03;13.30;99.90
16267;DHT22;8241;48.786;9.250;2023-03-30T08:13:31;13.30;99.90
16267;DHT22;8241;48.786;9.250;2023-03-30T08:15:58;13.30;99.90
16267;DHT22;8241;48.786;9.250;2023-03-30T08:18:24;13.30;99.90
16267;DHT22;8241;48.786;9.250;2023-03-30T08:20:53;13.30;99.90
16267;DHT22;8241;48.786;9.250;2023-03-30T08:23:20;13.30;99.90
16267;DHT22;8241;48.786;9.250;2023-03-30T08:25:47;13.20;99.90
16267;DHT22;8241;48.786;9.250;2023-03-30T08:28:17;13.20;99.90
16267;DHT22;8241;48.786;9.250;2023-03-30T08:30:44;13.20;99.90
16267;DHT22;8241;48.786;9.250;2023-03-30T08:33:11;13.20;99.90
16267;DHT22;8241;48.786;9.250;2023-03-30T08:35:39;13.10;99.90
16267;DHT22;8241;48.786;9.250;2023-03-30T08:38:07;13.10;99.90
16267;DHT22;8241;48.786;9.250;2023-03-30T08:40:37;13.10;99.90
16267;DHT22;8241;48.786;9.250;2023-03-30T08:43:11;13.10;99.90
16267;DHT22;8241;48.786;9.250;2023-03-30T08:45:43;13.20;99.90
16267;DHT22;8241;48.786;9.250;2023-03-30T08:48:13;13.20;99.90
16267;DHT22;8241;48.786;9.250;2023-03-30T08:50:41;13.20;99.90
16267;DHT22;8241;48.786;9.250;2023-03-30T08:53:11;13.20;99.90
16267;DHT22;8241;48.786;9.250;2023-03-30T08:55:40;13.20;99.90
16267;DHT22;8241;48.786;9.250;2023-03-30T08:58:09;13.20;99.90
16267;DHT22;8241;48.786;9.250;2023-03-30T09:00:39;13.10;99.90
16267;DHT22;8241;48.786;9.250;2023-03-30T09:03:15;13.10;99.90
16267;DHT22;8241;48.786;9.250;2023-03-30T09:05:44;13.10;99.90
16267;DHT22;8241;48.786;9.250;2023-03-30T09:08:15;13.00;99.90
16267;DHT22;8241;48.786;9.250;2023-03-30T09:10:45;13.00;99.90
16267;DHT22;8241;48.786;9.250;2023-03-30T09:13:13;13.00;99.90
16267;DHT22;8241;48.786;9.250;2023-03-30T09:15:42;13.00;99.90
16267;DHT22;8241;48.786;9.250;2023-03-30T09:18:14;12.90;99.90
16267;DHT22;8241;48.786;9.250;2023-03-30T09:20:43;12.90;99.90
16267;DHT22;8241;48.786;9.250;2023-03-30T09:23:11;12.80;99.90
16267;DHT22;8241;48.786;9.250;2023-03-30T09:25:41;12.80;99.90
16267;DHT22;8241;48.786;9.250;2023-03-30T09:28:11;12.80;99.90
16267;DHT22;8241;48.786;9.250;2023-03-30T09:30:40;12.80;99.90
16267;DHT22;8241;48.786;9.250;2023-03-30T09:33:12;12.80;99.90
16267;DHT22;8241;48.786;9.250;2023-03-30T09:35:40;12.90;99.90
16267;DHT22;8241;48.786;9.250;2023-03-30T09:38:09;12.90;99.90
16267;DHT22;8241;48.786;9.250;2023-03-30T09:40:45;13.00;99.90
16267;DHT22;8241;48.786;9.250;2023-03-30T09:43:15;13.00;99.90
16267;DHT22;8241;48.786;9.250;2023-03-30T09:45:44;13.10;99.90
16267;DHT22;8241;48.786;9.250;2023-03-30T09:48:12;13.10;99.90
16267;DHT22;8241;48.786;9.250;2023-03-30T09:50:42;13.20;99.90
16267;DHT22;8241;48.786;9.250;2023-03-30T09:53:17;13.20;99.90
16267;DHT22;8241;48.786;9.250;2023-03-30T09:55:54;13.30;99.90
16267;DHT22;8241;48.786;9.250;2023-03-30T09:58:25;13.20;99.90
16267;DHT22;8241;48.786;9.250;2023-03-30T10:01:00;13.30;99.90
16267;DHT22;8241;48.786;9.250;2023-03-30T10:03:28;13.30;99.90
16267;DHT22;8241;48.786;9.250;2023-03-30T10:05:59;13.30;99.90
16267;DHT22;8241;48.786;9.250;2023-03-30T10:08:27;13.40;99.90
16267;DHT22;8241;48.786;9.250;2023-03-30T10:10:55;13.40;99.90
16267;DHT22;8241;48.786;9.250;2023-03-30T10:13:25;13.40;99.90
16267;DHT22;8241;48.786;9.250;2023-03-30T10:15:52;13.40;99.90
16267;DHT22;8241;48.786;9.250;2023-03-30T10:18:23;13.50;99.90
16267;DHT22;8241;48.786;9.250;2023-03-30T10:20:51;13.50;99.90
16267;DHT22;8241;48.786;9.250;2023-03-30T10:23:19;13.50;99.90
16267;DHT22;8241;48.786;9.250;2023-03-30T10:25:47;13.60;99.90
16267;DHT22;8241;48.786;9.250;2023-03-30T10:28:17;13.60;99.90
16267;DHT22;8241;48.786;9.250;2023-03-30T10:30:49;13.60;99.90
16267;DHT22;8241;48.786;9.250;2023-03-30T10:33:16;13.70;99.90
16267;DHT22;8241;48.786;9.250;2023-03-30T10:35:46;13.80;99.90
16267;DHT22;8241;48.786;9.250;2023-03-30T10:38:16;13.80;99.90
16267;DHT22;8241;48.786;9.250;2023-03-30T10:40:43;13.90;99.90
16267;DHT22;8241;48.786;9.250;2023-03-30T10:43:12;13.90;99.90
16267;DHT22;8241;48.786;9.250;2023-03-30T10:45:43;13.90;99.90
16267;DHT22;8241;48.786;9.250;2023-03-30T10:48:14;13.90;99.90
16267;DHT22;8241;48.786;9.250;2023-03-30T10:50:46;13.90;99.90
16267;DHT22;8241;48.786;9.250;2023-03-30T10:53:20;13.90;99.90
16267;DHT22;8241;48.786;9.250;2023-03-30T10:55:51;13.90;99.90
16267;DHT22;8241;48.786;9.250;2023-03-30T10:58:25;13.90;99.90
16267;DHT22;8241;48.786;9.250;2023-03-30T11:00:59;13.90;99.90
16267;DHT22;8241;48.786;9.250;2023-03-30T11:03:28;13.90;99.90
16267;DHT22;8241;48.786;9.250;2023-03-30T11:05:57;13.90;99.90
16267;DHT22;8241;48.786;9.250;2023-03-30T11:08:28;14.00;99.90
16267;DHT22;8241;48.786;9.250;2023-03-30T11:10:57;14.10;99.90
16267;DHT22;8241;48.786;9.250;2023-03-30T11:13:25;14.10;99.90
16267;DHT22;8241;48.786;9.250;2023-03-30T11:15:53;14.20;99.90
16267;DHT22;8241;48.786;9.250;2023-03-30T11:18:22;14.20;99.90
16267;DHT22;8241;48.786;9.250;2023-03-30T11:20:53;14.30;99.90
16267;DHT22;8241;48.786;9.250;2023-03-30T11:23:22;14.30;99.90
16267;DHT22;8241;48.786;9.250;2023-03-30T11:25:53;14.40;99.90
16267;DHT22;8241;48.786;9.250;2023-03-30T11:28:29;14.50;99.90
16267;DHT22;8241;48.786;9.250;2023-03-30T11:31:01;14.50;99.90
16267;DHT22;8241;48.786;9.250;2023-03-30T11:33:35;14.60;99.90
16267;DHT22;8241;48.786;9.250;2023-03-30T11:36:02;14.70;99.90
16267;DHT22;8241;48.786;9.250;2023-03-30T11:38:32;14.80;99.90
16267;DHT22;8241;48.786;9.250;2023-03-30T11:41:03;14.80;99.90
16267;DHT22;8241;48.786;9.250;2023-03-30T11:43:31;14.90;99.90
16267;DHT22;8241;48.786;9.250;2023-03-30T11:46:00;15.00;99.90
16267;DHT22;8241;48.786;9.250;2023-03-30T11:48:32;15.00;99.90
16267;DHT22;8241;48.786;9.250;2023-03-30T11:51:10;15.10;99.90
16267;DHT22;8241;48.786;9.250;2023-03-30T11:53:43;15.10;99.90
16267;DHT22;8241;48.786;9.250;2023-03-30T11:56:14;15.20;99.90
16267;DHT22;8241;48.786;9.250;2023-03-30T11:58:46;15.10;99.90
16267;DHT22;8241;48.786;9.250;2023-03-30T12:01:18;15.10;99.90
16267;DHT22;8241;48.786;9.250;2023-03-30T12:03:48;15.20;99.90
16267;DHT22;8241;48.786;9.250;2023-03-30T12:06:22;15.10;99.90
16267;DHT22;8241;48.786;9.250;2023-03-30T12:08:59;15.10;99.90
16267;DHT22;8241;48.786;9.250;2023-03-30T12:11:29;15.20;99.90
16267;DHT22;8241;48.786;9.250;2023-03-30T12:13:58;15.30;99.90
16267;DHT22;8241;48.786;9.250;2023-03-30T12:16:27;15.30;99.90
16267;DHT22;8241;48.786;9.250;2023-03-30T12:18:57;15.40;99.90
16267;DHT22;8241;48.786;9.250;2023-03-30T12:21:31;15.50;99.90
16267;DHT22;8241;48.786;9.250;2023-03-30T12:23:59;15.50;99.90
16267;DHT22;8241;48.786;9.250;2023-03-30T12:26:28;15.50;99.90
16267;DHT22;8241;48.786;9.250;2023-03-30T12:28:57;15.40;99.90
16267;DHT22;8241;48.786;9.250;2023-03-30T12:34:09;15.30;99.90
16267;DHT22;8241;48.786;9.250;2023-03-30T12:36:38;15.30;99.90
16267;DHT22;8241;48.786;9.250;2023-03-30T12:39:06;15.30;99.90
16267;DHT22;8241;48.786;9.250;2023-03-30T12:41:41;15.30;99.90
16267;DHT22;8241;48.786;9.250;2023-03-30T12:44:22;15.30;99.90
16267;DHT22;8241;48.786;9.250;2023-03-30T12:46:59;15.60;99.90
16267;DHT22;8241;48.786;9.250;2023-03-30T12:49:31;15.70;99.90
16267;DHT22;8241;48.786;9.250;2023-03-30T12:52:03;15.80;99.90
16267;DHT22;8241;48.786;9.250;2023-03-30T12:54:38;16.00;99.90
16267;DHT22;8241;48.786;9.250;2023-03-30T12:57:09;16.30;99.90
16267;DHT22;8241;48.786;9.250;2023-03-30T13:02:42;16.90;99.90
16267;DHT22;8241;48.786;9.250;2023-03-30T13:05:16;16.90;99.90
16267;DHT22;8241;48.786;9.250;2023-03-30T13:07:44;16.80;99.90
16267;DHT22;8241;48.786;9.250;2023-03-30T13:12:57;16.80;99.90
16267;DHT22;8241;48.786;9.250;2023-03-30T13:15:36;16.90;99.90
16267;DHT22;8241;48.786;9.250;2023-03-30T13:21:02;17.10;98.70
16267;DHT22;8241;48.786;9.250;2023-03-30T13:23:31;17.20;97.70
16267;DHT22;8241;48.786;9.250;2023-03-30T13:26:03;17.50;96.90
16267;DHT22;8241;48.786;9.250;2023-03-30T13:28:34;17.70;95.90
16267;DHT22;8241;48.786;9.250;2023-03-30T13:31:09;17.80;95.30
16267;DHT22;8241;48.786;9.250;2023-03-30T13:33:38;17.70;95.50
16267;DHT22;8241;48.786;9.250;2023-03-30T13:36:07;17.60;95.20
16267;DHT22;8241;48.786;9.250;2023-03-30T13:41:28;18.10;94.30
16267;DHT22;8241;48.786;9.250;2023-03-30T13:44:00;18.20;93.20
16267;DHT22;8241;48.786;9.250;2023-03-30T13:46:31;17.90;93.60
16267;DHT22;8241;48.786;9.250;2023-03-30T13:49:05;17.80;94.30
16267;DHT22;8241;48.786;9.250;2023-03-30T13:51:36;17.80;94.90
16267;DHT22;8241;48.786;9.250;2023-03-30T13:54:05;18.00;95.10
16267;DHT22;8241;48.786;9.250;2023-03-30T13:56:35;18.10;94.10
16267;DHT22;8241;48.786;9.250;2023-03-30T13:59:04;18.00;94.60
16267;DHT22;8241;48.786;9.250;2023-03-30T14:01:32;18.10;94.20
16267;DHT22;8241;48.786;9.250;2023-03-30T14:04:00;18.30;94.10
16267;DHT22;8241;48.786;9.250;2023-03-30T14:06:29;18.30;93.40
16267;DHT22;8241;48.786;9.250;2023-03-30T14:09:08;18.20;93.20
16267;DHT22;8241;48.786;9.250;2023-03-30T14:11:40;18.00;93.10
16267;DHT22;8241;48.786;9.250;2023-03-30T14:14:12;17.90;93.70
16267;DHT22;8241;48.786;9.250;2023-03-30T14:16:40;18.20;92.70
16267;DHT22;8241;48.786;9.250;2023-03-30T14:19:10;18.20;93.00
16267;DHT22;8241;48.786;9.250;2023-03-30T14:21:38;18.40;92.40
16267;DHT22;8241;48.786;9.250;2023-03-30T14:24:17;18.30;91.90
16267;DHT22;8241;48.786;9.250;2023-03-30T14:26:48;18.20;91.40
16267;DHT22;8241;48.786;9.250;2023-03-30T14:29:19;18.10;91.20
16267;DHT22;8241;48.786;9.250;2023-03-30T14:31:49;18.10;91.70
16267;DHT22;8241;48.786;9.250;2023-03-30T14:34:24;18.00;91.30
16267;DHT22;8241;48.786;9.250;2023-03-30T14:36:53;18.00;91.20
16267;DHT22;8241;48.786;9.250;2023-03-30T14:39:20;17.80;91.10
16267;DHT22;8241;48.786;9.250;2023-03-30T14:41:53;17.70;91.50
16267;DHT22;8241;48.786;9.250;2023-03-30T14:44:21;17.60;91.50
16267;DHT22;8241;48.786;9.250;2023-03-30T14:46:49;17.50;91.50
16267;DHT22;8241;48.786;9.250;2023-03-30T14:49:19;17.40;91.90
16267;DHT22;8241;48.786;9.250;2023-03-30T14:51:50;17.40;92.00
16267;DHT22;8241;48.786;9.250;2023-03-30T14:54:21;17.30;91.50
16267;DHT22;8241;48.786;9.250;2023-03-30T14:56:50;17.40;91.20
16267;DHT22;8241;48.786;9.250;2023-03-30T14:59:20;17.30;91.90
16267;DHT22;8241;48.786;9.250;2023-03-30T15:01:47;17.30;94.10
16267;DHT22;8241;48.786;9.250;2023-03-30T15:04:14;17.10;94.00
16267;DHT22;8241;48.786;9.250;2023-03-30T15:06:42;17.00;94.80
16267;DHT22;8241;48.786;9.250;2023-03-30T15:09:12;17.00;94.00
16267;DHT22;8241;48.786;9.250;2023-03-30T15:11:40;16.90;95.50
16267;DHT22;8241;48.786;9.250;2023-03-30T15:14:07;16.90;94.70
16267;DHT22;8241;48.786;9.250;2023-03-30T15:16:38;16.80;94.60
16267;DHT22;8241;48.786;9.250;2023-03-30T15:19:05;16.80;95.00
16267;DHT22;8241;48.786;9.250;2023-03-30T15:21:35;16.70;94.30
16267;DHT22;8241;48.786;9.250;2023-03-30T15:24:04;16.70;94.30
16267;DHT22;8241;48.786;9.250;2023-03-30T15:26:31;16.60;95.10
16267;DHT22;8241;48.786;9.250;2023-03-30T15:28:58;16.60;95.40
16267;DHT22;8241;48.786;9.250;2023-03-30T15:31:26;16.60;95.60
16267;DHT22;8241;48.786;9.250;2023-03-30T15:33:54;16.50;95.10
16267;DHT22;8241;48.786;9.250;2023-03-30T15:36:24;16.50;94.50
16267;DHT22;8241;48.786;9.250;2023-03-30T15:38:51;16.50;94.10
16267;DHT22;8241;48.786;9.250;2023-03-30T15:41:20;16.50;94.40
16267;DHT22;8241;48.786;9.250;2023-03-30T15:43:51;16.40;94.80
16267;DHT22;8241;48.786;9.250;2023-03-30T15:46:18;16.50;94.70
16267;DHT22;8241;48.786;9.250;2023-03-30T15:48:46;16.40;94.40
16267;DHT22;8241;48.786;9.250;2023-03-30T15:51:16;16.40;95.10
16267;DHT22;8241;48.786;9.250;2023-03-30T15:53:46;16.30;97.20
16267;DHT22;8241;48.786;9.250;2023-03-30T15:56:16;16.30;99.90
16267;DHT22;8241;48.786;9.250;2023-03-30T15:58:44;16.30;99.90
16267;DHT22;8241;48.786;9.250;2023-03-30T16:01:11;16.30;99.60
16267;DHT22;8241;48.786;9.250;2023-03-30T16:03:40;16.30;99.80
16267;DHT22;8241;48.786;9.250;2023-03-30T16:06:19;16.20;98.60
16267;DHT22;8241;48.786;9.250;2023-03-30T16:08:50;16.30;94.30
16267;DHT22;8241;48.786;9.250;2023-03-30T16:11:16;16.30;95.20
16267;DHT22;8241;48.786;9.250;2023-03-30T16:13:45;16.40;92.10
16267;DHT22;8241;48.786;9.250;2023-03-30T16:16:13;16.30;92.70
16267;DHT22;8241;48.786;9.250;2023-03-30T16:18:42;16.40;92.60
16267;DHT22;8241;48.786;9.250;2023-03-30T16:21:09;16.40;92.30
16267;DHT22;8241;48.786;9.250;2023-03-30T16:23:36;16.50;92.40
16267;DHT22;8241;48.786;9.250;2023-03-30T16:26:05;16.40;91.70
16267;DHT22;8241;48.786;9.250;2023-03-30T16:28:34;16.40;91.90
16267;DHT22;8241;48.786;9.250;2023-03-30T16:31:02;16.40;91.90
16267;DHT22;8241;48.786;9.250;2023-03-30T16:33:29;16.40;91.70